createdAt,value
2022-11-29T00:01:52.780Z,49.27
2022-11-29T00:04:55.823Z,49.37
2022-11-29T00:08:00.174Z,49.37
2022-11-29T00:11:07.034Z,49.16
2022-11-29T00:14:11.934Z,49.39
2022-11-29T00:17:14.905Z,49.58
2022-11-29T00:20:18.687Z,49.66
2022-11-29T00:23:23.029Z,49.63
2022-11-29T00:26:26.082Z,49.82
2022-11-29T00:29:31.415Z,49.72
2022-11-29T00:32:34.383Z,49.76
2022-11-29T00:35:37.470Z,49.83
2022-11-29T00:38:42.510Z,49.81
2022-11-29T00:41:46.538Z,49.96
2022-11-29T00:44:49.535Z,49.81
2022-11-29T00:47:52.468Z,49.91
2022-11-29T00:50:55.524Z,50.05
2022-11-29T00:53:59.906Z,50.02
2022-11-29T00:57:02.947Z,49.99
2022-11-29T01:00:07.471Z,49.98
2022-11-29T01:03:10.558Z,49.97
2022-11-29T01:06:16.478Z,49.94
2022-11-29T01:09:22.054Z,50.06
2022-11-29T01:12:25.003Z,50.19
2022-11-29T01:15:28.041Z,50.18
2022-11-29T01:18:31.538Z,50.16
2022-11-29T01:21:35.029Z,50.08
2022-11-29T01:24:39.459Z,50.25
2022-11-29T01:27:42.907Z,50.03
2022-11-29T01:30:46.619Z,50.24
2022-11-29T01:33:49.698Z,50.09
2022-11-29T01:36:52.661Z,50.09
2022-11-29T01:39:57.061Z,50.20
2022-11-29T01:43:00.033Z,50.12
2022-11-29T01:46:03.140Z,50.11
2022-11-29T01:49:10.900Z,50.14
2022-11-29T01:52:18.915Z,50.16
2022-11-29T01:55:23.526Z,50.23
2022-11-29T01:58:26.813Z,49.98
2022-11-29T02:01:29.874Z,50.02
2022-11-29T02:04:33.700Z,50.07
2022-11-29T02:07:36.918Z,50.07
2022-11-29T02:10:59.459Z,50.14
2022-11-29T02:14:16.515Z,50.03
2022-11-29T02:17:26.198Z,49.92
2022-11-29T02:21:00.486Z,49.93
2022-11-29T02:24:37.086Z,49.80
2022-11-29T02:28:13.450Z,49.74
2022-11-29T02:32:03.237Z,49.87
2022-11-29T02:35:24.758Z,49.85
2022-11-29T02:38:46.988Z,49.82
2022-11-29T02:42:17.014Z,49.86
2022-11-29T02:45:39.566Z,49.82
2022-11-29T02:48:57.001Z,49.90
2022-11-29T02:52:04.339Z,49.94
2022-11-29T02:55:14.178Z,49.93
2022-11-29T02:58:25.024Z,49.97
2022-11-29T03:01:33.420Z,49.85
2022-11-29T03:04:46.539Z,49.79
2022-11-29T03:07:58.720Z,49.91
2022-11-29T03:11:10.450Z,49.97
2022-11-29T03:14:24.880Z,49.86
2022-11-29T03:17:41.834Z,49.91
2022-11-29T03:20:59.011Z,49.83
2022-11-29T03:24:10.322Z,49.95
2022-11-29T03:27:15.903Z,49.83
2022-11-29T03:30:21.759Z,49.92
2022-11-29T03:33:34.427Z,49.94
2022-11-29T03:36:44.588Z,49.84
2022-11-29T03:39:53.194Z,49.92
2022-11-29T03:43:01.811Z,49.84
2022-11-29T03:46:09.837Z,49.83
2022-11-29T03:49:22.682Z,49.83
2022-11-29T03:52:33.108Z,49.76
2022-11-29T03:55:51.519Z,49.88
2022-11-29T03:59:03.777Z,49.75
2022-11-29T04:02:36.399Z,49.85
2022-11-29T04:06:17.354Z,49.73
2022-11-29T04:09:35.544Z,49.67
2022-11-29T04:13:15.333Z,49.72
2022-11-29T04:16:50.665Z,49.68
2022-11-29T04:20:42.028Z,49.61
2022-11-29T04:24:04.269Z,49.52
2022-11-29T04:27:30.381Z,49.71
2022-11-29T04:30:44.761Z,49.68
2022-11-29T04:34:20.542Z,49.57
2022-11-29T04:37:50.513Z,49.67
2022-11-29T04:41:10.386Z,49.71
2022-11-29T04:44:31.026Z,49.59
2022-11-29T04:47:53.082Z,49.72
2022-11-29T04:51:04.415Z,49.68
2022-11-29T04:54:16.630Z,49.73
2022-11-29T04:57:36.305Z,49.69
2022-11-29T05:00:46.573Z,49.70
2022-11-29T05:03:58.298Z,49.68
2022-11-29T05:07:07.446Z,49.81
2022-11-29T05:10:25.478Z,49.80
2022-11-29T05:13:38.097Z,49.84
2022-11-29T05:16:48.378Z,49.87
2022-11-29T05:20:05.344Z,49.92
2022-11-29T05:23:27.197Z,49.91
2022-11-29T05:26:34.914Z,49.91
2022-11-29T05:29:44.459Z,49.93
2022-11-29T05:32:57.897Z,49.90
2022-11-29T05:36:15.614Z,49.99
2022-11-29T05:39:51.246Z,49.91
2022-11-29T05:43:16.647Z,49.87
2022-11-29T05:46:27.850Z,49.94
2022-11-29T05:49:39.321Z,49.97
2022-11-29T05:52:51.882Z,49.93
2022-11-29T05:56:04.326Z,49.97
2022-11-29T05:59:10.887Z,49.86
2022-11-29T06:02:29.480Z,49.92
2022-11-29T06:05:40.148Z,49.84
2022-11-29T06:08:52.901Z,49.88
2022-11-29T06:12:02.455Z,49.87
2022-11-29T06:15:30.125Z,49.82
2022-11-29T06:19:07.281Z,49.94
2022-11-29T06:22:21.423Z,49.85
2022-11-29T06:25:38.011Z,49.97
2022-11-29T06:28:51.122Z,50.00
2022-11-29T06:32:03.984Z,49.88
2022-11-29T06:35:12.488Z,49.84
2022-11-29T06:38:22.232Z,49.71
2022-11-29T06:41:27.370Z,49.71
2022-11-29T06:44:30.884Z,49.87
2022-11-29T06:47:42.280Z,49.89
2022-11-29T06:50:54.647Z,49.82
2022-11-29T06:54:05.794Z,49.84
2022-11-29T06:57:21.220Z,49.86
2022-11-29T07:00:27.093Z,49.62
2022-11-29T07:03:42.607Z,49.60
2022-11-29T07:06:46.291Z,49.60
2022-11-29T07:09:52.763Z,49.70
2022-11-29T07:12:57.846Z,49.76
2022-11-29T07:16:12.543Z,49.75
2022-11-29T07:19:25.237Z,49.68
2022-11-29T07:22:47.523Z,49.63
2022-11-29T07:26:03.150Z,49.62
2022-11-29T07:29:25.023Z,49.62
2022-11-29T07:32:39.783Z,49.81
2022-11-29T07:35:50.301Z,49.58
2022-11-29T07:39:04.347Z,49.52
2022-11-29T07:42:17.577Z,49.58
2022-11-29T07:45:26.917Z,49.61
2022-11-29T07:48:29.960Z,49.67
2022-11-29T07:51:33.243Z,49.70
2022-11-29T07:54:36.262Z,49.68
2022-11-29T07:57:39.292Z,49.57
2022-11-29T08:00:44.336Z,49.77
2022-11-29T08:03:47.375Z,49.78
2022-11-29T08:06:50.416Z,49.83
2022-11-29T08:09:53.420Z,50.04
2022-11-29T08:12:56.452Z,50.15
2022-11-29T08:16:00.885Z,50.02
2022-11-29T08:19:04.590Z,50.15
2022-11-29T08:22:07.708Z,50.02
2022-11-29T08:25:12.104Z,50.16
2022-11-29T08:28:15.541Z,50.17
2022-11-29T08:31:21.281Z,50.25
2022-11-29T08:34:25.698Z,50.33
2022-11-29T08:37:28.778Z,50.05
2022-11-29T08:40:31.886Z,50.00
2022-11-29T08:43:35.715Z,49.94
2022-11-29T08:47:03.098Z,50.04
2022-11-29T08:50:12.384Z,49.99
2022-11-29T08:53:32.879Z,50.05
2022-11-29T09:00:00.905Z,49.91
2022-11-29T09:03:23.856Z,49.92
2022-11-29T09:06:28.145Z,49.86
2022-11-29T09:09:31.419Z,49.81
2022-11-29T09:12:34.547Z,49.79
2022-11-29T09:15:38.207Z,49.76
2022-11-29T09:18:48.532Z,49.67
2022-11-29T09:21:54.924Z,49.75
2022-11-29T09:24:57.993Z,49.66
2022-11-29T09:28:03.107Z,49.56
2022-11-29T09:31:07.344Z,49.69
2022-11-29T09:34:13.454Z,49.73
2022-11-29T09:37:16.502Z,49.56
2022-11-29T09:40:22.455Z,49.69
2022-11-29T09:43:30.859Z,49.60
2022-11-29T09:46:44.255Z,49.31
2022-11-29T09:49:59.756Z,49.20
2022-11-29T09:53:18.361Z,49.25
2022-11-29T09:56:29.646Z,49.09
2022-11-29T09:59:38.262Z,49.26
2022-11-29T10:02:47.639Z,49.40
2022-11-29T10:05:57.517Z,49.39
2022-11-29T10:09:05.234Z,49.46
2022-11-29T10:12:16.546Z,49.40
2022-11-29T10:15:23.058Z,49.55
2022-11-29T10:18:33.463Z,49.78
2022-11-29T10:21:42.816Z,49.62
2022-11-29T10:24:50.747Z,49.74
2022-11-29T10:27:54.486Z,49.74
2022-11-29T10:31:01.355Z,49.85
2022-11-29T10:34:14.170Z,50.00
2022-11-29T10:37:20.186Z,49.93
2022-11-29T10:40:31.910Z,49.86
2022-11-29T10:43:37.328Z,49.95
2022-11-29T10:46:40.487Z,50.01
2022-11-29T10:49:43.721Z,50.07
2022-11-29T10:52:48.106Z,50.12
2022-11-29T10:55:56.035Z,50.24
2022-11-29T10:59:03.159Z,50.21
2022-11-29T11:02:18.614Z,50.23
2022-11-29T11:05:26.809Z,50.32
2022-11-29T11:08:32.418Z,50.28
2022-11-29T11:11:35.658Z,50.33
2022-11-29T11:14:40.091Z,50.21
2022-11-29T11:17:56.831Z,50.34
2022-11-29T11:21:02.659Z,50.26
2022-11-29T11:24:22.049Z,50.24
2022-11-29T11:27:33.911Z,50.52
2022-11-29T11:30:36.977Z,50.26
2022-11-29T11:33:41.402Z,49.93
2022-11-29T11:36:44.371Z,49.87
2022-11-29T11:39:50.076Z,49.85
2022-11-29T11:42:53.287Z,50.00
2022-11-29T11:45:56.537Z,49.94
2022-11-29T11:48:59.974Z,49.92
2022-11-29T11:52:06.029Z,50.05
2022-11-29T11:55:28.517Z,50.22
2022-11-29T11:58:33.459Z,50.19
2022-11-29T12:01:39.990Z,50.31
2022-11-29T12:04:43.656Z,50.31
2022-11-29T12:08:07.820Z,50.30
2022-11-29T12:11:17.069Z,50.32
2022-11-29T12:14:30.238Z,50.36
2022-11-29T12:17:37.692Z,50.27
2022-11-29T12:20:45.466Z,50.39
2022-11-29T12:23:54.467Z,50.37
2022-11-29T12:27:04.408Z,50.32
2022-11-29T12:30:13.562Z,50.27
2022-11-29T12:33:28.637Z,50.41
2022-11-29T12:36:39.021Z,50.33
2022-11-29T12:39:50.710Z,50.36
2022-11-29T12:43:04.210Z,50.21
2022-11-29T12:46:12.945Z,50.40
2022-11-29T12:49:25.980Z,50.39
2022-11-29T12:52:38.618Z,50.38
2022-11-29T12:55:55.178Z,50.32
2022-11-29T12:59:13.472Z,50.38
2022-11-29T13:02:27.141Z,50.46
2022-11-29T13:05:51.627Z,50.42
2022-11-29T13:09:04.585Z,50.40
2022-11-29T13:12:18.069Z,50.34
2022-11-29T13:15:26.138Z,50.33
2022-11-29T13:18:36.383Z,50.40
2022-11-29T13:21:46.635Z,50.35
2022-11-29T13:24:52.955Z,50.29
2022-11-29T13:27:59.523Z,50.13
2022-11-29T13:31:08.504Z,50.22
2022-11-29T13:34:16.419Z,50.12
2022-11-29T13:37:27.812Z,50.07
2022-11-29T13:40:38.717Z,50.18
2022-11-29T13:43:46.750Z,50.15
2022-11-29T13:47:00.555Z,50.13
2022-11-29T13:50:07.571Z,49.99
2022-11-29T13:53:16.397Z,50.01
2022-11-29T13:56:33.376Z,50.03
2022-11-29T13:59:45.912Z,49.96
2022-11-29T14:02:52.031Z,49.99
2022-11-29T14:06:05.919Z,50.09
2022-11-29T14:09:25.972Z,50.03
2022-11-29T14:12:37.074Z,50.08
2022-11-29T14:15:40.408Z,50.11
2022-11-29T14:19:07.672Z,50.06
2022-11-29T14:22:28.725Z,50.07
2022-11-29T14:28:56.437Z,50.36
2022-11-29T14:32:00.925Z,50.37
2022-11-29T14:35:18.412Z,50.34
2022-11-29T14:38:31.315Z,50.51
2022-11-29T14:41:52.366Z,50.53
2022-11-29T14:44:58.422Z,50.51
2022-11-29T14:48:02.842Z,50.66
2022-11-29T14:51:12.492Z,50.67
2022-11-29T14:54:19.702Z,50.61
2022-11-29T14:58:08.542Z,50.55
2022-11-29T15:01:11.959Z,50.06
2022-11-29T15:04:15.375Z,49.87
2022-11-29T15:07:32.824Z,49.96
2022-11-29T15:10:40.291Z,49.96
2022-11-29T15:13:54.623Z,50.01
2022-11-29T15:17:20.910Z,49.93
2022-11-29T15:20:40.278Z,49.98
2022-11-29T15:23:45.258Z,50.08
2022-11-29T15:26:58.962Z,50.01
2022-11-29T15:30:19.277Z,50.04
2022-11-29T15:33:24.892Z,50.13
2022-11-29T15:36:28.452Z,50.03
2022-11-29T15:39:35.269Z,50.25
2022-11-29T15:42:43.505Z,50.17
2022-11-29T15:45:50.685Z,50.25
2022-11-29T15:48:54.555Z,50.26
2022-11-29T15:52:00.897Z,50.70
2022-11-29T15:55:11.674Z,50.98
2022-11-29T15:58:15.666Z,50.42
2022-11-29T16:01:22.285Z,49.75
2022-11-29T16:04:27.239Z,49.41
2022-11-29T16:07:34.233Z,49.62
2022-11-29T16:10:47.361Z,49.31
2022-11-29T16:14:28.518Z,49.36
2022-11-29T16:17:33.853Z,48.97
2022-11-29T16:20:36.937Z,49.10
2022-11-29T16:23:41.331Z,49.16
2022-11-29T16:26:47.914Z,49.08
2022-11-29T16:29:52.705Z,49.11
2022-11-29T16:33:00.294Z,49.06
2022-11-29T16:36:08.490Z,49.25
2022-11-29T16:39:22.867Z,49.01
2022-11-29T16:42:29.199Z,48.86
2022-11-29T16:45:34.731Z,49.00
2022-11-29T16:48:38.658Z,48.94
2022-11-29T16:51:48.282Z,49.24
2022-11-29T16:54:52.080Z,49.33
2022-11-29T16:57:56.751Z,49.19
2022-11-29T17:01:00.050Z,49.32
2022-11-29T17:04:03.096Z,48.96
2022-11-29T17:07:08.539Z,48.68
2022-11-29T17:10:16.630Z,48.82
2022-11-29T17:13:21.023Z,48.81
2022-11-29T17:16:25.631Z,48.90
2022-11-29T17:19:30.035Z,48.92
2022-11-29T17:22:32.982Z,48.98
2022-11-29T17:25:36.001Z,49.18
2022-11-29T17:28:41.074Z,49.16
2022-11-29T17:31:44.949Z,49.18
2022-11-29T17:34:48.274Z,49.18
2022-11-29T17:37:51.486Z,48.75
2022-11-29T17:40:54.487Z,48.34
2022-11-29T17:43:59.210Z,48.01
2022-11-29T17:47:02.218Z,47.97
2022-11-29T17:50:06.137Z,48.00
2022-11-29T17:53:09.214Z,48.17
2022-11-29T17:56:14.247Z,48.24
2022-11-29T17:59:18.609Z,48.16
2022-11-29T18:02:21.752Z,48.28
2022-11-29T18:05:26.224Z,48.24
2022-11-29T18:08:30.902Z,48.41
2022-11-29T18:11:44.985Z,48.44
2022-11-29T18:14:51.296Z,48.37
2022-11-29T18:17:54.408Z,48.53
2022-11-29T18:20:59.087Z,48.54
2022-11-29T18:24:03.289Z,48.58
2022-11-29T18:27:06.261Z,48.60
2022-11-29T18:30:11.876Z,48.49
2022-11-29T18:33:14.858Z,48.66
2022-11-29T18:36:19.431Z,48.60
2022-11-29T18:39:24.944Z,48.71
2022-11-29T18:42:27.978Z,48.84
2022-11-29T18:45:35.838Z,48.69
2022-11-29T18:48:39.966Z,48.71
2022-11-29T18:51:45.401Z,48.83
2022-11-29T18:54:48.792Z,48.62
2022-11-29T18:57:53.134Z,48.68
2022-11-29T19:01:04.008Z,48.74
2022-11-29T19:04:06.981Z,48.78
2022-11-29T19:07:10.075Z,49.04
2022-11-29T19:10:13.451Z,48.97
2022-11-29T19:13:16.454Z,49.07
2022-11-29T19:16:22.077Z,49.13
2022-11-29T19:19:25.054Z,48.93
2022-11-29T19:22:29.460Z,48.78
2022-11-29T19:25:35.369Z,48.79
2022-11-29T19:28:39.133Z,48.88
2022-11-29T19:31:44.209Z,48.91
2022-11-29T19:34:47.225Z,48.93
2022-11-29T19:37:50.298Z,49.04
2022-11-29T19:40:53.301Z,48.89
2022-11-29T19:43:58.126Z,48.98
2022-11-29T19:47:02.991Z,48.99
2022-11-29T19:50:07.253Z,48.92
2022-11-29T19:53:10.350Z,48.97
2022-11-29T19:56:14.861Z,49.08
2022-11-29T19:59:18.589Z,49.17
2022-11-29T20:02:23.323Z,49.19
2022-11-29T20:05:27.320Z,49.26
2022-11-29T20:08:30.938Z,49.10
2022-11-29T20:11:33.965Z,49.16
2022-11-29T20:14:36.949Z,49.11
2022-11-29T20:17:41.402Z,49.32
2022-11-29T20:20:44.445Z,49.19
2022-11-29T20:23:47.448Z,49.17
2022-11-29T20:26:51.178Z,49.18
2022-11-29T20:29:54.298Z,49.26
2022-11-29T20:32:58.990Z,49.32
2022-11-29T20:36:13.737Z,49.08
2022-11-29T20:39:29.175Z,49.21
2022-11-29T20:42:57.913Z,49.30
2022-11-29T20:46:01.847Z,49.22
2022-11-29T20:49:07.172Z,49.22
2022-11-29T20:52:15.623Z,49.17
2022-11-29T20:55:19.270Z,49.34
2022-11-29T20:58:22.789Z,49.40
2022-11-29T21:01:25.794Z,49.27
2022-11-29T21:04:30.646Z,49.28
2022-11-29T21:07:33.709Z,49.23
2022-11-29T21:10:37.313Z,49.35
2022-11-29T21:13:42.287Z,49.43
2022-11-29T21:16:45.781Z,49.45
2022-11-29T21:19:50.653Z,49.35
2022-11-29T21:23:02.959Z,49.47
2022-11-29T21:26:11.343Z,49.50
2022-11-29T21:29:17.253Z,49.43
2022-11-29T21:32:23.240Z,49.46
2022-11-29T21:35:27.661Z,49.42
2022-11-29T21:38:30.755Z,49.41
2022-11-29T21:41:34.033Z,49.41
2022-11-29T21:44:37.062Z,49.53
2022-11-29T21:47:40.015Z,49.55
2022-11-29T21:50:44.387Z,49.45
2022-11-29T21:53:47.376Z,49.47
2022-11-29T21:56:50.330Z,49.44
2022-11-29T21:59:53.789Z,49.52
2022-11-29T22:02:57.399Z,49.53
2022-11-29T22:06:04.555Z,49.52
2022-11-29T22:09:08.661Z,49.59
2022-11-29T22:12:32.407Z,49.99
2022-11-29T22:15:34.766Z,49.78
2022-11-29T22:18:38.447Z,49.58
2022-11-29T22:21:44.074Z,49.63
2022-11-29T22:24:47.334Z,49.54
2022-11-29T22:27:51.388Z,49.59
2022-11-29T22:31:02.624Z,49.62
2022-11-29T22:34:05.611Z,49.54
2022-11-29T22:37:10.049Z,49.49
2022-11-29T22:40:13.693Z,49.58
2022-11-29T22:43:16.774Z,49.57
2022-11-29T22:46:21.506Z,49.58
2022-11-29T22:49:24.459Z,49.47
2022-11-29T22:52:29.619Z,49.51
2022-11-29T22:55:32.633Z,49.59
2022-11-29T22:58:36.026Z,49.45
2022-11-29T23:01:40.667Z,49.51
2022-11-29T23:04:44.645Z,49.44
2022-11-29T23:07:49.184Z,49.61
2022-11-29T23:10:56.847Z,49.51
2022-11-29T23:13:59.982Z,49.28
2022-11-29T23:17:02.913Z,49.23
2022-11-29T23:20:07.249Z,49.01
2022-11-29T23:23:11.807Z,48.42
2022-11-29T23:26:19.851Z,48.23
2022-11-29T23:29:23.551Z,48.23
2022-11-29T23:32:26.518Z,48.16
2022-11-29T23:35:29.416Z,48.13
2022-11-29T23:38:34.079Z,48.06
2022-11-29T23:41:37.667Z,48.20
2022-11-29T23:44:40.563Z,48.22
2022-11-29T23:47:43.439Z,48.37
2022-11-29T23:50:47.099Z,48.32
2022-11-29T23:53:54.027Z,48.25
2022-11-29T23:56:56.880Z,48.33
2022-11-29T23:59:59.852Z,48.33
